sensor_id;sensor_type;location;lat;lon;timestamp;temperature;humidity
82851;DHT22;72609;45.768;4.884;2023-11-19T11:07:49;8.60;78.70
82851;DHT22;72609;45.768;4.884;2023-11-19T11:10:16;13.20;69.40
82851;DHT22;72609;45.768;4.884;2023-11-19T11:12:43;13.10;69.40
82851;DHT22;72609;45.768;4.884;2023-11-19T11:15:14;13.10;69.50
82851;DHT22;72609;45.768;4.884;2023-11-19T11:17:41;13.10;69.50
82851;DHT22;72609;45.768;4.884;2023-11-19T11:20:09;13.20;69.50
82851;DHT22;72609;45.768;4.884;2023-11-19T11:22:46;13.10;69.50
82851;DHT22;72609;45.768;4.884;2023-11-19T11:25:38;13.10;69.60
82851;DHT22;72609;45.768;4.884;2023-11-19T11:39:48;13.30;69.90
82851;DHT22;72609;45.768;4.884;2023-11-19T11:45:05;13.30;69.90
82851;DHT22;72609;45.768;4.884;2023-11-19T11:50:26;13.40;70.40
82851;DHT22;72609;45.768;4.884;2023-11-19T11:55:27;13.50;70.30
82851;DHT22;72609;45.768;4.884;2023-11-19T11:57:56;13.50;70.40
82851;DHT22;72609;45.768;4.884;2023-11-19T12:00:38;13.50;70.30
82851;DHT22;72609;45.768;4.884;2023-11-19T12:03:07;13.50;70.40
82851;DHT22;72609;45.768;4.884;2023-11-19T12:05:33;13.50;70.60
82851;DHT22;72609;45.768;4.884;2023-11-19T12:08:04;13.50;70.60
82851;DHT22;72609;45.768;4.884;2023-11-19T12:13:10;13.70;71.00
82851;DHT22;72609;45.768;4.884;2023-11-19T12:18:23;13.80;71.20
82851;DHT22;72609;45.768;4.884;2023-11-19T12:20:49;13.80;71.30
82851;DHT22;72609;45.768;4.884;2023-11-19T12:23:15;13.80;70.70
82851;DHT22;72609;45.768;4.884;2023-11-19T12:25:41;13.80;71.10
82851;DHT22;72609;45.768;4.884;2023-11-19T12:28:12;13.80;71.10
82851;DHT22;72609;45.768;4.884;2023-11-19T12:30:37;13.80;71.70
82851;DHT22;72609;45.768;4.884;2023-11-19T12:33:08;13.70;71.50
82851;DHT22;72609;45.768;4.884;2023-11-19T12:35:39;13.60;71.90
82851;DHT22;72609;45.768;4.884;2023-11-19T12:38:05;13.60;72.00
82851;DHT22;72609;45.768;4.884;2023-11-19T12:40:30;13.60;72.50
82851;DHT22;72609;45.768;4.884;2023-11-19T12:42:56;13.70;72.90
82851;DHT22;72609;45.768;4.884;2023-11-19T12:45:22;13.70;72.30
82851;DHT22;72609;45.768;4.884;2023-11-19T12:47:49;13.60;72.60
82851;DHT22;72609;45.768;4.884;2023-11-19T12:50:18;13.50;72.60
82851;DHT22;72609;45.768;4.884;2023-11-19T12:52:55;13.50;72.90
82851;DHT22;72609;45.768;4.884;2023-11-19T12:55:29;13.50;73.30
82851;DHT22;72609;45.768;4.884;2023-11-19T12:57:55;13.50;73.60
82851;DHT22;72609;45.768;4.884;2023-11-19T13:00:22;13.50;74.00
82851;DHT22;72609;45.768;4.884;2023-11-19T13:02:56;13.50;73.20
82851;DHT22;72609;45.768;4.884;2023-11-19T13:05:32;13.50;73.50
82851;DHT22;72609;45.768;4.884;2023-11-19T13:08:06;13.60;73.70
82851;DHT22;72609;45.768;4.884;2023-11-19T13:10:33;13.60;73.90
82851;DHT22;72609;45.768;4.884;2023-11-19T13:13:15;13.70;73.60
82851;DHT22;72609;45.768;4.884;2023-11-19T13:15:40;13.70;73.40
82851;DHT22;72609;45.768;4.884;2023-11-19T13:18:06;13.80;73.50
82851;DHT22;72609;45.768;4.884;2023-11-19T13:20:32;13.80;73.70
82851;DHT22;72609;45.768;4.884;2023-11-19T13:23:00;13.80;73.40
82851;DHT22;72609;45.768;4.884;2023-11-19T13:25:27;13.90;73.50
82851;DHT22;72609;45.768;4.884;2023-11-19T13:27:53;13.80;73.80
82851;DHT22;72609;45.768;4.884;2023-11-19T13:30:19;13.90;73.40
82851;DHT22;72609;45.768;4.884;2023-11-19T13:32:45;13.80;73.60
82851;DHT22;72609;45.768;4.884;2023-11-19T13:35:15;13.80;73.60
82851;DHT22;72609;45.768;4.884;2023-11-19T13:37:40;13.80;73.50
82851;DHT22;72609;45.768;4.884;2023-11-19T13:40:07;13.80;73.70
82851;DHT22;72609;45.768;4.884;2023-11-19T13:42:38;13.80;73.80
82851;DHT22;72609;45.768;4.884;2023-11-19T13:45:16;13.80;74.20
82851;DHT22;72609;45.768;4.884;2023-11-19T13:47:45;13.90;74.70
82851;DHT22;72609;45.768;4.884;2023-11-19T13:50:12;13.90;74.00
82851;DHT22;72609;45.768;4.884;2023-11-19T13:52:39;14.00;74.00
82851;DHT22;72609;45.768;4.884;2023-11-19T13:55:07;14.00;73.80
82851;DHT22;72609;45.768;4.884;2023-11-19T13:57:34;14.00;73.80
82851;DHT22;72609;45.768;4.884;2023-11-19T14:00:00;13.90;73.70
82851;DHT22;72609;45.768;4.884;2023-11-19T14:02:25;13.90;74.30
82851;DHT22;72609;45.768;4.884;2023-11-19T14:04:51;13.80;74.00
82851;DHT22;72609;45.768;4.884;2023-11-19T14:07:17;13.80;74.20
82851;DHT22;72609;45.768;4.884;2023-11-19T14:09:43;13.80;74.50
82851;DHT22;72609;45.768;4.884;2023-11-19T14:12:09;13.80;74.50
82851;DHT22;72609;45.768;4.884;2023-11-19T14:14:35;13.80;74.50
82851;DHT22;72609;45.768;4.884;2023-11-19T14:17:02;13.80;74.50
82851;DHT22;72609;45.768;4.884;2023-11-19T14:19:28;13.70;74.90
82851;DHT22;72609;45.768;4.884;2023-11-19T14:21:54;13.80;75.20
82851;DHT22;72609;45.768;4.884;2023-11-19T14:24:20;13.90;75.40
82851;DHT22;72609;45.768;4.884;2023-11-19T14:26:46;14.00;75.20
82851;DHT22;72609;45.768;4.884;2023-11-19T14:29:12;14.00;75.00
82851;DHT22;72609;45.768;4.884;2023-11-19T14:31:38;13.90;75.10
82851;DHT22;72609;45.768;4.884;2023-11-19T14:34:05;14.00;75.40
82851;DHT22;72609;45.768;4.884;2023-11-19T14:36:31;13.90;75.40
82851;DHT22;72609;45.768;4.884;2023-11-19T14:38:56;13.90;75.60
82851;DHT22;72609;45.768;4.884;2023-11-19T14:41:24;13.80;75.60
82851;DHT22;72609;45.768;4.884;2023-11-19T14:43:50;13.90;75.70
82851;DHT22;72609;45.768;4.884;2023-11-19T14:46:15;13.80;75.90
82851;DHT22;72609;45.768;4.884;2023-11-19T14:48:41;13.80;76.00
82851;DHT22;72609;45.768;4.884;2023-11-19T14:51:07;13.80;76.20
82851;DHT22;72609;45.768;4.884;2023-11-19T14:53:34;13.80;76.30
82851;DHT22;72609;45.768;4.884;2023-11-19T14:56:00;13.80;76.20
82851;DHT22;72609;45.768;4.884;2023-11-19T14:58:26;13.70;76.20
82851;DHT22;72609;45.768;4.884;2023-11-19T15:00:52;13.70;76.50
82851;DHT22;72609;45.768;4.884;2023-11-19T15:03:18;13.70;76.80
82851;DHT22;72609;45.768;4.884;2023-11-19T15:05:44;13.70;76.90
82851;DHT22;72609;45.768;4.884;2023-11-19T15:08:11;13.70;77.90
82851;DHT22;72609;45.768;4.884;2023-11-19T15:10:36;13.70;76.90
82851;DHT22;72609;45.768;4.884;2023-11-19T15:13:03;13.80;77.50
82851;DHT22;72609;45.768;4.884;2023-11-19T15:15:29;13.80;77.00
82851;DHT22;72609;45.768;4.884;2023-11-19T15:17:55;13.80;77.40
82851;DHT22;72609;45.768;4.884;2023-11-19T15:20:20;13.80;77.20
82851;DHT22;72609;45.768;4.884;2023-11-19T15:22:46;13.80;77.30
82851;DHT22;72609;45.768;4.884;2023-11-19T15:25:12;13.80;77.30
82851;DHT22;72609;45.768;4.884;2023-11-19T15:27:38;13.80;77.70
82851;DHT22;72609;45.768;4.884;2023-11-19T15:30:04;13.90;78.70
82851;DHT22;72609;45.768;4.884;2023-11-19T15:32:30;13.90;78.00
82851;DHT22;72609;45.768;4.884;2023-11-19T15:34:57;13.90;77.80
82851;DHT22;72609;45.768;4.884;2023-11-19T15:37:23;13.90;77.80
82851;DHT22;72609;45.768;4.884;2023-11-19T15:39:49;13.90;78.20
82851;DHT22;72609;45.768;4.884;2023-11-19T15:42:17;13.90;78.50
82851;DHT22;72609;45.768;4.884;2023-11-19T15:44:42;13.90;78.20
82851;DHT22;72609;45.768;4.884;2023-11-19T15:47:09;13.90;78.20
82851;DHT22;72609;45.768;4.884;2023-11-19T15:49:35;13.80;78.30
82851;DHT22;72609;45.768;4.884;2023-11-19T15:52:02;13.80;78.30
82851;DHT22;72609;45.768;4.884;2023-11-19T15:54:28;13.80;78.30
82851;DHT22;72609;45.768;4.884;2023-11-19T15:56:53;13.80;78.40
82851;DHT22;72609;45.768;4.884;2023-11-19T15:59:19;13.80;78.30
82851;DHT22;72609;45.768;4.884;2023-11-19T16:01:46;13.80;78.30
82851;DHT22;72609;45.768;4.884;2023-11-19T16:04:11;13.70;78.60
82851;DHT22;72609;45.768;4.884;2023-11-19T16:06:37;13.80;78.50
82851;DHT22;72609;45.768;4.884;2023-11-19T16:09:03;13.70;78.80
82851;DHT22;72609;45.768;4.884;2023-11-19T16:11:29;13.70;78.60
82851;DHT22;72609;45.768;4.884;2023-11-19T16:13:54;13.80;78.80
82851;DHT22;72609;45.768;4.884;2023-11-19T16:16:20;13.70;78.90
82851;DHT22;72609;45.768;4.884;2023-11-19T16:18:46;13.70;79.00
82851;DHT22;72609;45.768;4.884;2023-11-19T16:21:12;13.70;79.20
82851;DHT22;72609;45.768;4.884;2023-11-19T16:23:37;13.70;79.00
82851;DHT22;72609;45.768;4.884;2023-11-19T16:26:03;13.70;79.20
82851;DHT22;72609;45.768;4.884;2023-11-19T16:28:28;13.70;80.10
82851;DHT22;72609;45.768;4.884;2023-11-19T16:30:54;13.70;79.70
82851;DHT22;72609;45.768;4.884;2023-11-19T16:33:20;13.70;79.50
82851;DHT22;72609;45.768;4.884;2023-11-19T16:35:45;13.60;79.70
82851;DHT22;72609;45.768;4.884;2023-11-19T16:38:11;13.70;80.00
82851;DHT22;72609;45.768;4.884;2023-11-19T16:40:37;13.60;79.50
82851;DHT22;72609;45.768;4.884;2023-11-19T16:43:05;13.60;79.60
82851;DHT22;72609;45.768;4.884;2023-11-19T16:45:31;13.60;80.10
82851;DHT22;72609;45.768;4.884;2023-11-19T16:47:58;13.60;80.10
82851;DHT22;72609;45.768;4.884;2023-11-19T16:50:26;13.60;80.60
82851;DHT22;72609;45.768;4.884;2023-11-19T16:52:52;13.60;80.40
82851;DHT22;72609;45.768;4.884;2023-11-19T16:55:18;13.60;80.80
82851;DHT22;72609;45.768;4.884;2023-11-19T17:02:40;13.60;80.70
82851;DHT22;72609;45.768;4.884;2023-11-19T17:05:08;13.60;81.20
82851;DHT22;72609;45.768;4.884;2023-11-19T17:07:34;13.60;81.40
82851;DHT22;72609;45.768;4.884;2023-11-19T17:10:00;13.60;81.20
82851;DHT22;72609;45.768;4.884;2023-11-19T17:12:28;13.60;80.60
82851;DHT22;72609;45.768;4.884;2023-11-19T17:14:54;13.60;81.20
82851;DHT22;72609;45.768;4.884;2023-11-19T17:17:27;13.60;81.70
82851;DHT22;72609;45.768;4.884;2023-11-19T17:19:58;13.60;81.10
82851;DHT22;72609;45.768;4.884;2023-11-19T17:22:24;13.60;81.00
82851;DHT22;72609;45.768;4.884;2023-11-19T17:24:50;13.60;81.00
82851;DHT22;72609;45.768;4.884;2023-11-19T17:27:15;13.60;81.10
82851;DHT22;72609;45.768;4.884;2023-11-19T17:29:41;13.60;81.00
82851;DHT22;72609;45.768;4.884;2023-11-19T17:32:06;13.60;81.10
82851;DHT22;72609;45.768;4.884;2023-11-19T17:34:32;13.60;81.30
82851;DHT22;72609;45.768;4.884;2023-11-19T17:36:57;13.50;81.30
82851;DHT22;72609;45.768;4.884;2023-11-19T17:39:23;13.50;81.40
82851;DHT22;72609;45.768;4.884;2023-11-19T17:41:49;13.60;81.30
82851;DHT22;72609;45.768;4.884;2023-11-19T17:44:14;13.50;81.30
82851;DHT22;72609;45.768;4.884;2023-11-19T17:46:40;13.50;81.30
82851;DHT22;72609;45.768;4.884;2023-11-19T17:51:32;13.50;81.40
82851;DHT22;72609;45.768;4.884;2023-11-19T17:53:58;13.50;82.10
82851;DHT22;72609;45.768;4.884;2023-11-19T17:56:23;13.50;81.30
82851;DHT22;72609;45.768;4.884;2023-11-19T17:58:49;13.50;81.50
82851;DHT22;72609;45.768;4.884;2023-11-19T18:01:20;13.50;81.60
82851;DHT22;72609;45.768;4.884;2023-11-19T18:03:47;13.50;81.60
82851;DHT22;72609;45.768;4.884;2023-11-19T18:06:17;13.40;81.80
82851;DHT22;72609;45.768;4.884;2023-11-19T18:08:44;13.40;81.80
82851;DHT22;72609;45.768;4.884;2023-11-19T18:11:09;13.40;81.60
82851;DHT22;72609;45.768;4.884;2023-11-19T18:13:35;13.40;81.70
82851;DHT22;72609;45.768;4.884;2023-11-19T18:16:01;13.40;81.70
82851;DHT22;72609;45.768;4.884;2023-11-19T18:18:27;13.40;81.70
82851;DHT22;72609;45.768;4.884;2023-11-19T18:20:52;13.40;81.90
82851;DHT22;72609;45.768;4.884;2023-11-19T18:23:18;13.40;81.70
82851;DHT22;72609;45.768;4.884;2023-11-19T18:25:44;13.40;81.80
82851;DHT22;72609;45.768;4.884;2023-11-19T18:28:13;13.50;82.80
82851;DHT22;72609;45.768;4.884;2023-11-19T18:30:41;13.70;82.40
82851;DHT22;72609;45.768;4.884;2023-11-19T18:33:07;13.90;81.90
82851;DHT22;72609;45.768;4.884;2023-11-19T18:35:33;14.10;81.20
82851;DHT22;72609;45.768;4.884;2023-11-19T18:37:59;14.20;80.60
82851;DHT22;72609;45.768;4.884;2023-11-19T18:40:25;14.30;80.10
82851;DHT22;72609;45.768;4.884;2023-11-19T18:42:51;14.40;79.70
82851;DHT22;72609;45.768;4.884;2023-11-19T18:45:16;14.40;79.40
82851;DHT22;72609;45.768;4.884;2023-11-19T18:47:45;14.40;79.30
82851;DHT22;72609;45.768;4.884;2023-11-19T18:50:10;14.40;79.20
82851;DHT22;72609;45.768;4.884;2023-11-19T18:52:36;14.40;79.20
82851;DHT22;72609;45.768;4.884;2023-11-19T18:55:02;14.40;79.00
82851;DHT22;72609;45.768;4.884;2023-11-19T18:57:29;14.40;79.10
82851;DHT22;72609;45.768;4.884;2023-11-19T18:59:56;14.30;78.90
82851;DHT22;72609;45.768;4.884;2023-11-19T19:02:21;14.30;79.00
82851;DHT22;72609;45.768;4.884;2023-11-19T19:04:47;14.30;78.90
82851;DHT22;72609;45.768;4.884;2023-11-19T19:07:13;14.20;78.80
82851;DHT22;72609;45.768;4.884;2023-11-19T19:09:39;14.20;79.00
82851;DHT22;72609;45.768;4.884;2023-11-19T19:12:05;14.20;79.00
82851;DHT22;72609;45.768;4.884;2023-11-19T19:14:31;14.10;78.90
82851;DHT22;72609;45.768;4.884;2023-11-19T19:16:57;14.10;79.20
82851;DHT22;72609;45.768;4.884;2023-11-19T19:19:23;14.10;79.20
82851;DHT22;72609;45.768;4.884;2023-11-19T19:21:49;14.10;79.20
82851;DHT22;72609;45.768;4.884;2023-11-19T19:24:14;14.10;79.30
82851;DHT22;72609;45.768;4.884;2023-11-19T19:26:41;14.10;79.20
82851;DHT22;72609;45.768;4.884;2023-11-19T19:29:08;14.00;79.10
82851;DHT22;72609;45.768;4.884;2023-11-19T19:31:34;14.00;79.20
82851;DHT22;72609;45.768;4.884;2023-11-19T19:34:00;14.00;79.10
82851;DHT22;72609;45.768;4.884;2023-11-19T19:36:26;14.00;79.20
82851;DHT22;72609;45.768;4.884;2023-11-19T19:38:56;13.90;79.10
82851;DHT22;72609;45.768;4.884;2023-11-19T19:41:22;13.90;79.10
82851;DHT22;72609;45.768;4.884;2023-11-19T19:43:55;13.90;79.10
82851;DHT22;72609;45.768;4.884;2023-11-19T19:46:21;13.80;79.00
82851;DHT22;72609;45.768;4.884;2023-11-19T19:48:46;13.80;79.10
82851;DHT22;72609;45.768;4.884;2023-11-19T19:51:12;13.80;79.10
82851;DHT22;72609;45.768;4.884;2023-11-19T19:53:37;13.80;79.20
82851;DHT22;72609;45.768;4.884;2023-11-19T19:56:04;13.80;79.10
82851;DHT22;72609;45.768;4.884;2023-11-19T19:58:30;13.70;79.10
82851;DHT22;72609;45.768;4.884;2023-11-19T20:00:57;13.80;79.20
82851;DHT22;72609;45.768;4.884;2023-11-19T20:03:25;13.70;79.00
82851;DHT22;72609;45.768;4.884;2023-11-19T20:05:50;13.70;79.20
82851;DHT22;72609;45.768;4.884;2023-11-19T20:08:16;13.70;79.10
82851;DHT22;72609;45.768;4.884;2023-11-19T20:10:41;13.70;79.20
82851;DHT22;72609;45.768;4.884;2023-11-19T20:13:07;13.60;79.30
82851;DHT22;72609;45.768;4.884;2023-11-19T20:15:36;13.60;79.40
82851;DHT22;72609;45.768;4.884;2023-11-19T20:18:03;13.60;79.40
82851;DHT22;72609;45.768;4.884;2023-11-19T20:20:30;13.60;79.40
82851;DHT22;72609;45.768;4.884;2023-11-19T20:22:57;13.60;79.40
82851;DHT22;72609;45.768;4.884;2023-11-19T20:25:30;13.60;79.30
82851;DHT22;72609;45.768;4.884;2023-11-19T20:27:56;13.60;79.90
82851;DHT22;72609;45.768;4.884;2023-11-19T20:30:22;13.60;79.20
82851;DHT22;72609;45.768;4.884;2023-11-19T20:32:48;13.60;79.20
82851;DHT22;72609;45.768;4.884;2023-11-19T20:35:13;13.50;79.10
82851;DHT22;72609;45.768;4.884;2023-11-19T20:37:43;13.50;79.10
82851;DHT22;72609;45.768;4.884;2023-11-19T20:40:09;13.40;79.10
82851;DHT22;72609;45.768;4.884;2023-11-19T20:42:37;13.40;79.10
82851;DHT22;72609;45.768;4.884;2023-11-19T20:45:07;13.40;79.20
82851;DHT22;72609;45.768;4.884;2023-11-19T20:47:36;13.40;79.20
82851;DHT22;72609;45.768;4.884;2023-11-19T20:50:03;13.40;79.50
82851;DHT22;72609;45.768;4.884;2023-11-19T20:52:33;13.40;79.30
82851;DHT22;72609;45.768;4.884;2023-11-19T20:54:59;13.40;79.40
82851;DHT22;72609;45.768;4.884;2023-11-19T20:57:26;13.40;79.40
82851;DHT22;72609;45.768;4.884;2023-11-19T20:59:51;13.30;79.30
82851;DHT22;72609;45.768;4.884;2023-11-19T21:02:17;13.40;79.30
82851;DHT22;72609;45.768;4.884;2023-11-19T21:04:42;13.40;79.30
82851;DHT22;72609;45.768;4.884;2023-11-19T21:07:09;13.40;79.40
82851;DHT22;72609;45.768;4.884;2023-11-19T21:09:35;13.30;79.30
82851;DHT22;72609;45.768;4.884;2023-11-19T21:12:01;13.30;79.30
82851;DHT22;72609;45.768;4.884;2023-11-19T21:14:28;13.30;79.60
82851;DHT22;72609;45.768;4.884;2023-11-19T21:16:53;13.30;79.80
82851;DHT22;72609;45.768;4.884;2023-11-19T21:19:20;13.30;79.90
82851;DHT22;72609;45.768;4.884;2023-11-19T21:21:45;13.30;79.80
82851;DHT22;72609;45.768;4.884;2023-11-19T21:24:11;13.30;79.80
82851;DHT22;72609;45.768;4.884;2023-11-19T21:26:37;13.30;79.70
82851;DHT22;72609;45.768;4.884;2023-11-19T21:29:02;13.30;79.60
82851;DHT22;72609;45.768;4.884;2023-11-19T21:31:28;13.30;79.60
82851;DHT22;72609;45.768;4.884;2023-11-19T21:33:53;13.30;80.30
82851;DHT22;72609;45.768;4.884;2023-11-19T21:36:19;13.30;79.50
82851;DHT22;72609;45.768;4.884;2023-11-19T21:38:46;13.20;79.40
82851;DHT22;72609;45.768;4.884;2023-11-19T21:41:13;13.20;79.30
82851;DHT22;72609;45.768;4.884;2023-11-19T21:43:38;13.20;79.40
82851;DHT22;72609;45.768;4.884;2023-11-19T21:46:04;13.20;79.30
82851;DHT22;72609;45.768;4.884;2023-11-19T21:48:30;13.20;79.40
82851;DHT22;72609;45.768;4.884;2023-11-19T21:50:56;13.20;79.40
82851;DHT22;72609;45.768;4.884;2023-11-19T21:53:22;13.10;79.30
82851;DHT22;72609;45.768;4.884;2023-11-19T21:55:48;13.10;80.00
82851;DHT22;72609;45.768;4.884;2023-11-19T21:58:14;13.10;79.40
82851;DHT22;72609;45.768;4.884;2023-11-19T22:00:40;13.10;79.50
82851;DHT22;72609;45.768;4.884;2023-11-19T22:03:05;13.10;79.40
82851;DHT22;72609;45.768;4.884;2023-11-19T22:05:31;13.10;79.40
82851;DHT22;72609;45.768;4.884;2023-11-19T22:07:57;13.10;79.20
82851;DHT22;72609;45.768;4.884;2023-11-19T22:10:22;13.10;79.20
82851;DHT22;72609;45.768;4.884;2023-11-19T22:12:48;13.10;79.10
82851;DHT22;72609;45.768;4.884;2023-11-19T22:15:13;13.10;79.10
82851;DHT22;72609;45.768;4.884;2023-11-19T22:17:39;13.10;79.00
82851;DHT22;72609;45.768;4.884;2023-11-19T22:20:05;13.10;79.10
82851;DHT22;72609;45.768;4.884;2023-11-19T22:22:32;13.10;79.20
82851;DHT22;72609;45.768;4.884;2023-11-19T22:24:58;13.00;79.10
82851;DHT22;72609;45.768;4.884;2023-11-19T22:27:25;13.00;79.10
82851;DHT22;72609;45.768;4.884;2023-11-19T22:29:51;13.00;79.20
82851;DHT22;72609;45.768;4.884;2023-11-19T22:32:17;13.00;79.10
82851;DHT22;72609;45.768;4.884;2023-11-19T22:34:42;13.00;79.00
82851;DHT22;72609;45.768;4.884;2023-11-19T22:37:09;13.00;78.80
82851;DHT22;72609;45.768;4.884;2023-11-19T22:39:34;13.00;78.70
82851;DHT22;72609;45.768;4.884;2023-11-19T22:42:01;12.90;78.80
82851;DHT22;72609;45.768;4.884;2023-11-19T22:44:26;12.90;79.50
82851;DHT22;72609;45.768;4.884;2023-11-19T22:46:53;12.90;78.70
82851;DHT22;72609;45.768;4.884;2023-11-19T22:49:19;12.90;78.70
82851;DHT22;72609;45.768;4.884;2023-11-19T22:51:45;12.90;78.70
82851;DHT22;72609;45.768;4.884;2023-11-19T22:54:10;12.90;78.50
82851;DHT22;72609;45.768;4.884;2023-11-19T22:56:36;12.80;78.60
82851;DHT22;72609;45.768;4.884;2023-11-19T22:59:01;12.80;78.70
82851;DHT22;72609;45.768;4.884;2023-11-19T23:01:29;12.90;78.70
82851;DHT22;72609;45.768;4.884;2023-11-19T23:03:57;12.80;78.60
82851;DHT22;72609;45.768;4.884;2023-11-19T23:06:23;12.80;78.50
82851;DHT22;72609;45.768;4.884;2023-11-19T23:08:48;12.80;78.50
82851;DHT22;72609;45.768;4.884;2023-11-19T23:11:14;12.80;78.50
82851;DHT22;72609;45.768;4.884;2023-11-19T23:13:42;12.80;78.40
82851;DHT22;72609;45.768;4.884;2023-11-19T23:16:07;12.80;78.20
82851;DHT22;72609;45.768;4.884;2023-11-19T23:18:35;12.80;78.20
82851;DHT22;72609;45.768;4.884;2023-11-19T23:21:01;12.80;78.20
82851;DHT22;72609;45.768;4.884;2023-11-19T23:23:27;12.80;78.20
82851;DHT22;72609;45.768;4.884;2023-11-19T23:25:53;12.80;78.30
82851;DHT22;72609;45.768;4.884;2023-11-19T23:28:19;12.70;78.20
82851;DHT22;72609;45.768;4.884;2023-11-19T23:30:45;12.70;78.20
82851;DHT22;72609;45.768;4.884;2023-11-19T23:33:10;12.70;78.30
82851;DHT22;72609;45.768;4.884;2023-11-19T23:35:36;12.70;78.30
82851;DHT22;72609;45.768;4.884;2023-11-19T23:38:02;12.70;78.20
82851;DHT22;72609;45.768;4.884;2023-11-19T23:40:28;12.70;78.20
82851;DHT22;72609;45.768;4.884;2023-11-19T23:42:54;12.70;78.20
82851;DHT22;72609;45.768;4.884;2023-11-19T23:45:19;12.70;78.20
82851;DHT22;72609;45.768;4.884;2023-11-19T23:47:45;12.60;78.10
82851;DHT22;72609;45.768;4.884;2023-11-19T23:50:11;12.60;78.20
82851;DHT22;72609;45.768;4.884;2023-11-19T23:52:37;12.70;78.10
82851;DHT22;72609;45.768;4.884;2023-11-19T23:55:02;12.60;78.10
82851;DHT22;72609;45.768;4.884;2023-11-19T23:57:28;12.60;78.10
82851;DHT22;72609;45.768;4.884;2023-11-19T23:59:53;12.60;78.20
